createdAt,value
2023-04-23T00:02:13.083Z,25.67
2023-04-23T00:04:42.444Z,25.75
2023-04-23T00:07:09.476Z,26.10
2023-04-23T00:09:36.501Z,24.08
2023-04-23T00:12:03.568Z,25.67
2023-04-23T00:14:30.514Z,24.83
2023-04-23T00:16:57.523Z,25.85
2023-04-23T00:19:24.421Z,26.45
2023-04-23T00:21:51.450Z,26.98
2023-04-23T00:24:18.129Z,25.23
2023-04-23T00:26:44.923Z,27.92
2023-04-23T00:29:11.787Z,25.38
2023-04-23T00:31:38.855Z,24.27
2023-04-23T00:34:05.770Z,27.85
2023-04-23T00:36:32.495Z,30.15
2023-04-23T00:38:59.280Z,29.90
2023-04-23T00:41:28.281Z,30.70
2023-04-23T00:43:57.166Z,31.00
2023-04-23T00:46:26.195Z,31.00
2023-04-23T00:48:53.727Z,29.42
2023-04-23T00:51:23.160Z,31.38
2023-04-23T00:53:50.247Z,33.10
2023-04-23T00:56:17.868Z,31.13
2023-04-23T00:58:45.489Z,31.23
2023-04-23T01:01:12.835Z,33.38
2023-04-23T01:03:42.886Z,31.40
2023-04-23T01:06:09.788Z,32.35
2023-04-23T01:08:38.350Z,36.28
2023-04-23T01:11:06.058Z,33.88
2023-04-23T01:13:33.205Z,34.22
2023-04-23T01:16:00.073Z,33.60
2023-04-23T01:18:27.550Z,34.65
2023-04-23T01:20:54.373Z,35.65
2023-04-23T01:23:21.309Z,35.53
2023-04-23T01:25:48.740Z,35.80
2023-04-23T01:28:15.694Z,36.70
2023-04-23T01:30:43.997Z,36.83
2023-04-23T01:33:11.458Z,36.47
2023-04-23T01:35:40.669Z,35.50
2023-04-23T01:38:10.287Z,33.42
2023-04-23T01:40:37.555Z,32.53
2023-04-23T01:43:07.126Z,32.85
2023-04-23T01:45:34.135Z,33.50
2023-04-23T01:48:01.259Z,34.83
2023-04-23T01:50:30.096Z,35.22
2023-04-23T01:52:57.299Z,35.17
2023-04-23T01:55:24.343Z,37.13
2023-04-23T01:57:51.843Z,34.58
2023-04-23T02:00:21.664Z,36.78
2023-04-23T02:02:53.894Z,35.80
2023-04-23T02:05:22.753Z,35.35
2023-04-23T02:07:51.545Z,36.50
2023-04-23T02:10:18.776Z,33.88
2023-04-23T02:12:46.305Z,37.75
2023-04-23T02:15:14.166Z,34.72
2023-04-23T02:17:41.947Z,36.28
2023-04-23T02:20:10.740Z,35.30
2023-04-23T02:22:39.566Z,36.28
2023-04-23T02:25:07.295Z,34.72
2023-04-23T02:27:34.890Z,32.25
2023-04-23T02:30:02.231Z,33.22
2023-04-23T02:32:29.335Z,30.75
2023-04-23T02:34:56.549Z,29.15
2023-04-23T02:37:23.295Z,30.00
2023-04-23T02:39:50.344Z,30.25
2023-04-23T02:42:17.083Z,32.67
2023-04-23T02:44:43.855Z,31.95
2023-04-23T02:47:10.604Z,34.15
2023-04-23T02:49:37.300Z,34.53
2023-04-23T02:52:04.670Z,37.22
2023-04-23T02:54:32.404Z,38.08
2023-04-23T02:56:59.358Z,37.53
2023-04-23T02:59:26.192Z,41.00
2023-04-23T03:01:53.218Z,41.60
2023-04-23T03:04:20.608Z,41.10
2023-04-23T03:06:49.301Z,45.00
2023-04-23T03:09:16.001Z,41.95
2023-04-23T03:11:43.063Z,44.17
2023-04-23T03:14:12.364Z,45.38
2023-04-23T03:16:39.272Z,43.47
2023-04-23T03:19:06.458Z,45.65
2023-04-23T03:21:33.320Z,42.70
2023-04-23T03:24:00.237Z,43.67
2023-04-23T03:26:26.987Z,40.15
2023-04-23T03:28:53.838Z,41.85
2023-04-23T03:31:20.821Z,42.83
2023-04-23T03:33:47.763Z,42.38
2023-04-23T03:36:18.786Z,41.72
2023-04-23T03:38:45.800Z,39.60
2023-04-23T03:41:12.646Z,39.25
2023-04-23T03:43:39.516Z,38.83
2023-04-23T03:46:29.316Z,42.88
2023-04-23T03:48:56.061Z,39.63
2023-04-23T03:51:27.365Z,39.72
2023-04-23T03:53:54.926Z,40.17
2023-04-23T03:56:54.647Z,40.97
2023-04-23T03:59:24.778Z,40.42
2023-04-23T04:01:54.231Z,40.55
2023-04-23T04:04:21.424Z,38.17
2023-04-23T04:06:50.030Z,40.58
2023-04-23T04:09:17.117Z,41.55
2023-04-23T04:11:43.890Z,41.15
2023-04-23T04:14:10.957Z,41.70
2023-04-23T04:16:37.705Z,40.75
2023-04-23T04:19:04.544Z,42.47
2023-04-23T04:21:33.018Z,40.17
2023-04-23T04:24:03.754Z,41.92
2023-04-23T04:26:34.254Z,41.45
2023-04-23T04:29:01.659Z,40.67
2023-04-23T04:31:29.396Z,39.80
2023-04-23T04:33:57.599Z,41.40
2023-04-23T04:36:27.289Z,42.70
2023-04-23T04:38:58.910Z,44.08
2023-04-23T04:41:26.318Z,42.45
2023-04-23T04:43:54.607Z,44.42
2023-04-23T04:46:21.740Z,44.72
2023-04-23T04:48:48.973Z,43.13
2023-04-23T04:51:16.255Z,43.30
2023-04-23T04:53:43.056Z,40.22
2023-04-23T04:56:10.184Z,43.88
2023-04-23T04:58:37.242Z,42.63
2023-04-23T05:01:05.317Z,40.67
2023-04-23T05:03:32.291Z,42.00
2023-04-23T05:05:59.223Z,43.63
2023-04-23T05:08:26.021Z,45.65
2023-04-23T05:10:54.244Z,42.10
2023-04-23T05:13:21.269Z,43.33
2023-04-23T05:15:48.455Z,41.47
2023-04-23T05:18:15.311Z,42.08
2023-04-23T05:20:42.969Z,42.95
2023-04-23T05:23:10.049Z,44.30
2023-04-23T05:25:37.092Z,41.97
2023-04-23T05:28:07.562Z,43.47
2023-04-23T05:30:34.389Z,42.67
2023-04-23T05:33:01.375Z,45.75
2023-04-23T05:35:28.294Z,42.50
2023-04-23T05:37:55.128Z,45.75
2023-04-23T05:40:21.833Z,42.70
2023-04-23T05:42:48.927Z,43.75
2023-04-23T05:45:15.723Z,43.95
2023-04-23T05:47:44.843Z,43.35
2023-04-23T05:50:11.732Z,42.45
2023-04-23T05:52:39.737Z,44.53
2023-04-23T05:55:09.498Z,43.22
2023-04-23T05:57:37.627Z,42.45
2023-04-23T06:00:06.061Z,42.38
2023-04-23T06:02:39.833Z,41.42
2023-04-23T06:05:08.290Z,40.08
2023-04-23T06:07:36.041Z,42.45
2023-04-23T06:10:05.504Z,40.83
2023-04-23T06:12:32.283Z,42.97
2023-04-23T06:14:59.099Z,41.88
2023-04-23T06:17:25.958Z,41.97
2023-04-23T06:19:52.752Z,41.97
2023-04-23T06:22:19.483Z,42.22
2023-04-23T06:24:46.470Z,42.85
2023-04-23T06:27:13.761Z,41.88
2023-04-23T06:29:44.998Z,40.97
2023-04-23T06:32:11.740Z,39.95
2023-04-23T06:34:44.101Z,39.95
2023-04-23T06:37:16.818Z,42.88
2023-04-23T06:39:43.531Z,38.83
2023-04-23T06:42:10.355Z,39.00
2023-04-23T06:44:49.317Z,41.75
2023-04-23T06:47:16.346Z,38.88
2023-04-23T06:49:43.071Z,38.20
2023-04-23T06:52:10.211Z,37.25
2023-04-23T06:54:36.895Z,36.95
2023-04-23T06:57:03.854Z,38.90
2023-04-23T06:59:30.704Z,38.45
2023-04-23T07:01:59.023Z,35.28
2023-04-23T07:04:25.849Z,35.88
2023-04-23T07:06:52.578Z,35.75
2023-04-23T07:09:19.866Z,37.67
2023-04-23T07:11:46.702Z,35.83
2023-04-23T07:14:13.578Z,35.03
2023-04-23T07:16:40.899Z,34.08
2023-04-23T07:19:07.673Z,33.47
2023-04-23T07:21:34.402Z,32.92
2023-04-23T07:24:06.531Z,30.98
2023-04-23T07:26:33.942Z,30.48
2023-04-23T07:29:01.269Z,31.85
2023-04-23T07:31:28.637Z,29.27
2023-04-23T07:33:56.209Z,29.00
2023-04-23T07:36:23.101Z,29.75
2023-04-23T07:38:50.917Z,28.15
2023-04-23T07:41:18.296Z,29.95
2023-04-23T07:43:45.582Z,30.30
2023-04-23T07:46:12.754Z,29.92
2023-04-23T07:48:39.729Z,29.60
2023-04-23T07:51:06.672Z,30.45
2023-04-23T07:53:34.318Z,28.70
2023-04-23T07:56:01.328Z,29.17
2023-04-23T07:58:28.034Z,29.27
2023-04-23T08:00:54.948Z,27.85
2023-04-23T08:03:22.780Z,27.98
2023-04-23T08:05:49.789Z,27.95
2023-04-23T08:08:16.692Z,25.98
2023-04-23T08:10:43.556Z,29.42
2023-04-23T08:13:11.119Z,28.15
2023-04-23T08:15:38.016Z,26.92
2023-04-23T08:18:05.163Z,24.83
2023-04-23T08:20:32.439Z,24.23
2023-04-23T08:22:59.426Z,23.60
2023-04-23T08:25:26.282Z,24.65
2023-04-23T08:27:53.108Z,23.15
2023-04-23T08:30:19.922Z,22.17
2023-04-23T08:32:50.763Z,21.60
2023-04-23T08:35:17.841Z,23.17
2023-04-23T08:37:44.735Z,21.65
2023-04-23T08:40:11.839Z,22.35
2023-04-23T08:43:01.934Z,20.85
2023-04-23T08:45:30.530Z,20.42
2023-04-23T08:48:02.683Z,21.13
2023-04-23T08:50:31.080Z,21.58
2023-04-23T08:53:01.788Z,19.23
2023-04-23T08:55:28.490Z,18.17
2023-04-23T08:57:58.429Z,20.90
2023-04-23T09:00:26.012Z,19.33
2023-04-23T09:02:53.353Z,18.63
2023-04-23T09:05:20.582Z,18.52
2023-04-23T09:07:47.474Z,17.23
2023-04-23T09:10:17.015Z,18.30
2023-04-23T09:12:45.410Z,17.80
2023-04-23T09:15:12.993Z,16.00
2023-04-23T09:17:44.399Z,16.38
2023-04-23T09:20:12.213Z,14.80
2023-04-23T09:22:45.276Z,13.93
2023-04-23T09:25:19.248Z,13.65
2023-04-23T09:27:46.991Z,13.50
2023-04-23T09:30:14.682Z,13.43
2023-04-23T09:32:43.512Z,13.18
2023-04-23T09:35:13.970Z,11.40
2023-04-23T09:37:48.518Z,11.88
2023-04-23T09:40:27.057Z,10.73
2023-04-23T09:42:55.120Z,11.40
2023-04-23T09:45:22.543Z,9.73
2023-04-23T09:47:56.753Z,7.22
2023-04-23T09:50:33.462Z,7.18
2023-04-23T09:53:00.548Z,6.43
2023-04-23T09:55:37.186Z,7.28
2023-04-23T09:58:04.799Z,7.00
2023-04-23T10:00:37.528Z,9.27
2023-04-23T10:03:06.696Z,7.75
2023-04-23T10:08:14.279Z,6.43
2023-04-23T10:10:56.739Z,6.30
2023-04-23T10:13:27.834Z,6.43
2023-04-23T10:16:02.506Z,7.88
2023-04-23T10:21:05.554Z,5.45
2023-04-23T10:23:33.738Z,6.38
2023-04-23T10:26:02.590Z,6.88
2023-04-23T10:28:32.482Z,6.40
2023-04-23T10:31:00.876Z,5.63
2023-04-23T10:33:30.875Z,5.50
2023-04-23T10:36:02.868Z,4.20
2023-04-23T10:38:30.412Z,4.57
2023-04-23T10:41:00.589Z,5.72
2023-04-23T10:43:27.492Z,5.25
2023-04-23T10:45:54.139Z,5.70
2023-04-23T10:48:21.559Z,4.20
2023-04-23T10:51:09.766Z,3.83
2023-04-23T10:53:45.744Z,3.47
2023-04-23T10:56:12.645Z,4.35
2023-04-23T10:58:49.730Z,3.67
2023-04-23T11:01:18.383Z,3.15
2023-04-23T11:03:45.572Z,3.33
2023-04-23T11:06:39.763Z,2.97
2023-04-23T11:09:40.204Z,3.40
2023-04-23T11:12:10.533Z,3.13
2023-04-23T11:14:50.231Z,3.05
2023-04-23T11:17:38.208Z,2.67
2023-04-23T11:20:18.867Z,3.05
2023-04-23T11:22:50.380Z,2.63
2023-04-23T11:25:23.596Z,2.85
2023-04-23T11:27:52.055Z,2.55
2023-04-23T11:30:21.502Z,3.60
2023-04-23T11:32:51.600Z,2.97
2023-04-23T11:35:20.574Z,3.25
2023-04-23T11:37:48.455Z,2.58
2023-04-23T11:40:20.815Z,3.10
2023-04-23T11:42:53.853Z,3.85
2023-04-23T11:45:22.588Z,2.25
2023-04-23T11:47:51.295Z,2.65
2023-04-23T11:50:25.577Z,3.10
2023-04-23T11:52:52.809Z,2.65
2023-04-23T11:55:20.664Z,2.70
2023-04-23T11:57:49.018Z,2.60
2023-04-23T12:00:33.784Z,2.58
2023-04-23T12:03:02.546Z,2.70
2023-04-23T12:05:35.298Z,2.50
2023-04-23T12:08:12.603Z,3.25
2023-04-23T12:10:49.285Z,2.50
2023-04-23T12:13:24.825Z,2.40
2023-04-23T12:16:02.804Z,2.65
2023-04-23T12:18:31.190Z,2.10
2023-04-23T12:21:05.839Z,2.60
2023-04-23T12:23:33.549Z,2.20
2023-04-23T12:26:00.335Z,2.00
2023-04-23T12:28:27.747Z,2.33
2023-04-23T12:31:00.553Z,2.35
2023-04-23T12:33:30.781Z,1.98
2023-04-23T12:35:58.160Z,2.65
2023-04-23T12:38:29.079Z,2.53
2023-04-23T12:40:58.328Z,2.35
2023-04-23T12:43:26.603Z,2.47
2023-04-23T12:45:54.707Z,1.98
2023-04-23T12:48:22.107Z,2.63
2023-04-23T12:50:49.095Z,2.30
2023-04-23T12:53:15.917Z,2.00
2023-04-23T12:55:44.217Z,2.00
2023-04-23T12:58:12.698Z,2.15
2023-04-23T13:00:39.545Z,2.50
2023-04-23T13:03:06.395Z,2.13
2023-04-23T13:05:33.200Z,1.85
2023-04-23T13:07:59.967Z,2.13
2023-04-23T13:10:26.710Z,2.00
2023-04-23T13:12:53.354Z,2.80
2023-04-23T13:15:20.365Z,2.33
2023-04-23T13:17:50.166Z,2.05
2023-04-23T13:20:17.030Z,2.25
2023-04-23T13:22:43.939Z,2.17
2023-04-23T13:25:11.385Z,1.95
2023-04-23T13:27:38.248Z,2.05
2023-04-23T13:30:06.051Z,1.75
2023-04-23T13:32:32.930Z,1.90
2023-04-23T13:35:04.966Z,1.70
2023-04-23T13:37:31.901Z,1.80
2023-04-23T13:39:58.596Z,2.08
2023-04-23T13:42:25.354Z,2.00
2023-04-23T13:44:52.489Z,2.38
2023-04-23T13:47:19.287Z,2.33
2023-04-23T13:49:46.123Z,2.08
2023-04-23T13:52:12.926Z,2.05
2023-04-23T13:54:40.350Z,2.38
2023-04-23T13:57:07.255Z,2.03
2023-04-23T13:59:34.017Z,2.20
2023-04-23T14:02:00.900Z,2.00
2023-04-23T14:04:27.816Z,1.92
2023-04-23T14:06:54.657Z,2.28
2023-04-23T14:09:22.499Z,1.83
2023-04-23T14:11:49.632Z,1.70
2023-04-23T14:14:16.704Z,1.52
2023-04-23T14:16:43.478Z,2.05
2023-04-23T14:19:10.197Z,2.38
2023-04-23T14:21:37.262Z,1.85
2023-04-23T14:24:37.134Z,2.05
2023-04-23T14:27:05.689Z,1.63
2023-04-23T14:29:50.557Z,1.38
2023-04-23T14:32:17.427Z,1.70
2023-04-23T14:34:44.776Z,1.35
2023-04-23T14:37:13.088Z,1.73
2023-04-23T14:39:41.224Z,2.22
2023-04-23T14:42:08.271Z,1.85
2023-04-23T14:44:35.159Z,1.60
2023-04-23T14:47:04.807Z,1.80
2023-04-23T14:49:34.037Z,1.55
2023-04-23T14:52:02.021Z,1.70
2023-04-23T14:54:28.748Z,1.98
2023-04-23T14:56:55.511Z,1.25
2023-04-23T14:59:23.049Z,1.60
2023-04-23T15:01:49.853Z,2.25
2023-04-23T15:04:16.738Z,1.85
2023-04-23T15:06:43.489Z,2.03
2023-04-23T15:09:10.110Z,1.88
2023-04-23T15:11:38.700Z,2.25
2023-04-23T15:14:17.872Z,2.05
2023-04-23T15:16:48.774Z,1.80
2023-04-23T15:19:18.117Z,1.80
2023-04-23T15:21:46.106Z,2.20
2023-04-23T15:24:13.268Z,1.50
2023-04-23T15:26:40.416Z,1.88
2023-04-23T15:29:10.272Z,1.77
2023-04-23T15:31:37.873Z,1.95
2023-04-23T15:34:07.139Z,2.28
2023-04-23T15:36:35.358Z,2.20
2023-04-23T15:39:02.094Z,2.20
2023-04-23T15:41:28.981Z,2.15
2023-04-23T15:43:56.562Z,2.25
2023-04-23T15:46:23.322Z,1.73
2023-04-23T15:48:50.051Z,1.40
2023-04-23T15:51:16.893Z,1.77
2023-04-23T15:53:44.035Z,1.33
2023-04-23T15:56:10.699Z,2.17
2023-04-23T15:58:37.366Z,1.88
2023-04-23T16:01:05.220Z,2.20
2023-04-23T16:03:32.112Z,1.80
2023-04-23T16:05:58.899Z,1.90
2023-04-23T16:08:25.589Z,2.28
2023-04-23T16:10:52.474Z,1.92
2023-04-23T16:13:19.952Z,2.00
2023-04-23T16:15:47.085Z,2.05
2023-04-23T16:18:16.577Z,1.83
2023-04-23T16:20:43.312Z,2.20
2023-04-23T16:23:10.094Z,1.90
2023-04-23T16:25:37.260Z,1.80
2023-04-23T16:28:04.794Z,2.17
2023-04-23T16:30:31.678Z,2.00
2023-04-23T16:32:58.433Z,2.17
2023-04-23T16:35:25.235Z,2.40
2023-04-23T16:37:52.106Z,1.90
2023-04-23T16:40:19.277Z,2.20
2023-04-23T16:42:48.457Z,2.22
2023-04-23T16:45:15.326Z,2.03
2023-04-23T16:47:43.612Z,2.65
2023-04-23T16:50:11.223Z,2.65
2023-04-23T16:52:38.004Z,2.70
2023-04-23T16:55:05.765Z,1.88
2023-04-23T16:57:33.027Z,1.23
2023-04-23T17:00:02.340Z,1.60
2023-04-23T17:02:29.241Z,1.52
2023-04-23T17:04:56.317Z,1.70
2023-04-23T17:07:23.434Z,1.85
2023-04-23T17:09:50.273Z,1.58
2023-04-23T17:12:17.047Z,1.55
2023-04-23T17:14:43.792Z,1.70
2023-04-23T17:17:10.705Z,1.58
2023-04-23T17:19:37.423Z,1.80
2023-04-23T17:22:06.258Z,1.50
2023-04-23T17:24:33.175Z,1.95
2023-04-23T17:26:59.909Z,2.10
2023-04-23T17:29:26.719Z,1.80
2023-04-23T17:31:53.463Z,1.92
2023-04-23T17:34:20.509Z,2.42
2023-04-23T17:36:47.331Z,3.00
2023-04-23T17:39:19.719Z,3.20
2023-04-23T17:41:46.623Z,3.72
2023-04-23T17:44:14.788Z,3.30
2023-04-23T17:46:41.667Z,3.35
2023-04-23T17:49:10.698Z,3.42
2023-04-23T17:51:37.891Z,3.28
2023-04-23T17:54:05.433Z,3.00
2023-04-23T17:56:32.739Z,3.15
2023-04-23T17:58:59.656Z,2.72
2023-04-23T18:01:26.916Z,2.10
2023-04-23T18:03:53.883Z,3.20
2023-04-23T18:06:22.033Z,2.53
2023-04-23T18:08:49.165Z,1.92
2023-04-23T18:11:15.946Z,2.13
2023-04-23T18:13:42.950Z,2.00
2023-04-23T18:16:09.741Z,1.90
2023-04-23T18:18:36.471Z,2.00
2023-04-23T18:21:04.446Z,2.10
2023-04-23T18:23:31.305Z,2.28
2023-04-23T18:26:01.338Z,1.77
2023-04-23T18:28:28.803Z,2.00
2023-04-23T18:31:02.200Z,1.60
2023-04-23T18:33:43.140Z,2.25
2023-04-23T18:36:29.515Z,1.75
2023-04-23T18:38:56.378Z,1.85
2023-04-23T18:41:23.535Z,2.08
2023-04-23T18:43:50.232Z,2.03
2023-04-23T18:46:17.278Z,1.95
2023-04-23T18:48:59.938Z,2.08
2023-04-23T18:51:33.185Z,2.08
2023-04-23T18:54:01.708Z,1.60
2023-04-23T18:56:28.801Z,2.10
2023-04-23T18:58:55.581Z,1.83
2023-04-23T19:01:22.438Z,1.98
2023-04-23T19:03:49.302Z,1.63
2023-04-23T19:06:16.600Z,2.20
2023-04-23T19:08:43.283Z,2.58
2023-04-23T19:11:09.981Z,2.60
2023-04-23T19:13:36.769Z,2.53
2023-04-23T19:16:03.666Z,2.03
2023-04-23T19:18:30.720Z,2.70
2023-04-23T19:20:58.196Z,2.58
2023-04-23T19:23:24.857Z,2.50
2023-04-23T19:25:51.788Z,2.85
2023-04-23T19:28:18.668Z,2.95
2023-04-23T19:30:46.720Z,2.75
2023-04-23T19:33:13.974Z,2.50
2023-04-23T19:35:41.026Z,2.60
2023-04-23T19:38:08.273Z,2.60
2023-04-23T19:40:35.174Z,3.00
2023-04-23T19:43:01.865Z,2.80
2023-04-23T19:45:29.945Z,3.03
2023-04-23T19:47:57.032Z,3.20
2023-04-23T19:50:24.519Z,3.50
2023-04-23T19:52:51.549Z,3.53
2023-04-23T19:55:20.506Z,3.65
2023-04-23T19:57:47.707Z,3.97
2023-04-23T20:00:14.757Z,3.92
2023-04-23T20:02:41.808Z,3.55
2023-04-23T20:05:11.997Z,3.85
2023-04-23T20:07:39.118Z,3.78
2023-04-23T20:10:06.560Z,3.72
2023-04-23T20:12:33.836Z,4.00
2023-04-23T20:15:00.502Z,3.58
2023-04-23T20:17:29.571Z,3.72
2023-04-23T20:20:01.804Z,4.18
2023-04-23T20:22:29.373Z,3.42
2023-04-23T20:24:56.899Z,3.55
2023-04-23T20:27:23.841Z,4.32
2023-04-23T20:29:50.551Z,4.25
2023-04-23T20:32:17.575Z,4.80
2023-04-23T20:34:44.471Z,4.05
2023-04-23T20:37:12.291Z,4.57
2023-04-23T20:39:39.074Z,4.22
2023-04-23T20:42:06.398Z,4.53
2023-04-23T20:44:34.288Z,3.67
2023-04-23T20:47:04.809Z,3.88
2023-04-23T20:49:32.448Z,3.40
2023-04-23T20:51:59.762Z,3.33
2023-04-23T20:54:26.557Z,3.83
2023-04-23T20:56:54.236Z,3.33
2023-04-23T20:59:22.080Z,3.17
2023-04-23T21:01:49.973Z,2.88
2023-04-23T21:04:17.258Z,3.78
2023-04-23T21:06:44.347Z,3.83
2023-04-23T21:09:11.289Z,3.63
2023-04-23T21:11:38.323Z,3.55
2023-04-23T21:14:08.678Z,3.95
2023-04-23T21:16:36.854Z,3.25
2023-04-23T21:19:04.744Z,3.35
2023-04-23T21:21:32.370Z,3.53
2023-04-23T21:24:00.705Z,3.40
2023-04-23T21:26:29.409Z,3.53
2023-04-23T21:28:56.459Z,3.40
2023-04-23T21:31:38.227Z,2.80
2023-04-23T21:34:05.117Z,3.50
2023-04-23T21:36:32.468Z,3.08
2023-04-23T21:38:59.308Z,3.15
2023-04-23T21:41:26.176Z,3.17
2023-04-23T21:43:52.956Z,3.25
2023-04-23T21:46:19.822Z,3.30
2023-04-23T21:48:49.742Z,2.83
2023-04-23T21:51:16.449Z,3.28
2023-04-23T21:53:43.299Z,3.05
2023-04-23T21:56:10.146Z,2.95
2023-04-23T21:58:36.866Z,2.80
2023-04-23T22:01:03.923Z,3.75
2023-04-23T22:03:36.535Z,3.30
2023-04-23T22:06:05.172Z,3.22
2023-04-23T22:08:32.907Z,3.30
2023-04-23T22:10:59.736Z,3.45
2023-04-23T22:13:26.686Z,3.28
2023-04-23T22:15:53.448Z,2.78
2023-04-23T22:18:20.771Z,1.98
2023-04-23T22:20:50.797Z,2.22
2023-04-23T22:23:17.463Z,1.27
2023-04-23T22:25:44.729Z,1.30
2023-04-23T22:28:12.184Z,0.85
2023-04-23T22:30:39.001Z,0.70
2023-04-23T22:33:05.986Z,0.65
2023-04-23T22:35:32.950Z,0.47
2023-04-23T22:37:59.778Z,0.60
2023-04-23T22:40:26.909Z,0.60
2023-04-23T22:42:53.628Z,0.45
2023-04-23T22:45:20.452Z,0.50
2023-04-23T22:47:48.432Z,0.40
2023-04-23T22:50:15.264Z,0.40
2023-04-23T22:52:42.125Z,0.70
2023-04-23T22:55:09.058Z,0.60
2023-04-23T22:57:36.130Z,0.50
2023-04-23T23:00:05.458Z,0.88
2023-04-23T23:02:32.328Z,0.50
2023-04-23T23:04:59.143Z,0.50
2023-04-23T23:07:26.041Z,0.40
2023-04-23T23:09:52.709Z,0.60
2023-04-23T23:12:19.455Z,0.70
2023-04-23T23:14:46.204Z,0.70
2023-04-23T23:17:13.259Z,0.80
2023-04-23T23:19:40.036Z,1.02
2023-04-23T23:22:06.992Z,1.00
2023-04-23T23:24:34.578Z,1.17
2023-04-23T23:27:01.552Z,1.10
2023-04-23T23:29:28.211Z,1.50
2023-04-23T23:31:57.240Z,1.55
2023-04-23T23:34:23.926Z,1.63
2023-04-23T23:36:52.115Z,2.08
2023-04-23T23:39:20.035Z,1.90
2023-04-23T23:41:47.197Z,2.03
2023-04-23T23:44:14.276Z,2.35
2023-04-23T23:46:41.174Z,2.70
2023-04-23T23:49:08.334Z,2.92
2023-04-23T23:51:35.457Z,2.90
2023-04-23T23:54:02.241Z,3.47
2023-04-23T23:56:29.265Z,3.63
2023-04-23T23:58:56.198Z,4.47
